Terminal Aerodrome Forecast
Issued by NWS

Home | Current Version | Previous Version | Text Only | Print | Product List | Glossary On
Versions: 1 2 3 4 5 6 7 8 9 10 11 12 13 14 15 16
000
FTUS43 KIND 240525
TAFBMG
TAF
KBMG 240525Z 2406/2506 17009KT P6SM SCT110 WS020/19040KT
     FM241400 19010KT P6SM BKN045
     FM241500 19011G19KT P6SM BKN020
     FM241900 19013G23KT P6SM BKN030
     FM242300 18010KT P6SM BKN045
      AMD LTD TO CLD VIS AND WIND TIL 241300=

USA.gov is the U.S. government's official web portal to all federal, state and local government web resources and services.